La Bolsa, New Mexico
Current Conditions -  °F | °C
As of 9:35 AM on Friday 19 Dec 2014 (Local Time) from KLAM Reporting Station
Clear Clear  
Wind Chill: -5°   Ceiling: Unl
Heat Index: -3°   Visibility: 10mi
Dew Point: -5°   Wind: 5mph
Humidity: 83%   Direction: 70°ENE
Pressure: 30.21"   Gusts: NA
Location:  36.1441°N, 105.996°W
Report Text: KLAM 191635Z AUTO 07004KT 10SM CLR M02/M05 A3021 RMK AO2 T10251051
Loading
Personal Weather Stations






























Interactive Weather Map New forecast layout! Learn more

10-Day Weather Forecast

Advertisements
Track Severe Weather on mobile